createdAt,value
2022-12-15T00:00:18.285Z,-6.18
2022-12-15T00:03:04.163Z,-6.26
2022-12-15T00:05:50.118Z,-6.16
2022-12-15T00:08:36.412Z,-6.04
2022-12-15T00:11:22.664Z,-6.01
2022-12-15T00:14:08.969Z,-6.08
2022-12-15T00:16:55.017Z,-6.05
2022-12-15T00:19:40.825Z,-6.08
2022-12-15T00:22:26.686Z,-6.13
2022-12-15T00:25:12.413Z,-6.14
2022-12-15T00:27:58.202Z,-6.18
2022-12-15T00:30:43.915Z,-6.21
2022-12-15T00:33:31.244Z,-6.26
2022-12-15T00:36:18.656Z,-6.27
2022-12-15T00:38:46.409Z,-6.38
2022-12-15T00:41:16.541Z,-6.33
2022-12-15T00:43:44.062Z,-6.44
2022-12-15T00:46:30.455Z,-6.45
2022-12-15T00:48:58.251Z,-6.52
2022-12-15T00:51:44.732Z,-6.54
2022-12-15T00:54:30.743Z,-6.59
2022-12-15T00:57:16.695Z,-6.64
2022-12-15T01:00:02.425Z,-6.63
2022-12-15T01:02:48.202Z,-6.59
2022-12-15T01:05:34.254Z,-6.59
2022-12-15T01:08:20.020Z,-6.63
2022-12-15T01:11:05.582Z,-6.65
2022-12-15T01:13:51.205Z,-6.60
2022-12-15T01:16:37.092Z,-6.62
2022-12-15T01:19:22.852Z,-6.59
2022-12-15T01:21:50.020Z,-6.56
2022-12-15T01:24:17.169Z,-6.62
2022-12-15T01:26:44.147Z,-6.71
2022-12-15T01:29:11.172Z,-6.74
2022-12-15T01:31:38.152Z,-6.75
2022-12-15T01:34:05.413Z,-6.86
2022-12-15T01:36:32.683Z,-6.81
2022-12-15T01:38:59.703Z,-6.85
2022-12-15T01:41:27.131Z,-6.87
2022-12-15T01:43:54.132Z,-6.77
2022-12-15T01:46:23.507Z,-6.98
2022-12-15T01:49:29.011Z,-6.80
2022-12-15T01:52:00.510Z,-6.82
2022-12-15T01:54:30.732Z,-6.86
2022-12-15T01:57:03.416Z,-6.85
2022-12-15T01:59:35.401Z,-6.83
2022-12-15T02:02:03.431Z,-6.90
2022-12-15T02:04:31.397Z,-6.80
2022-12-15T02:06:58.519Z,-6.76
2022-12-15T02:09:28.184Z,-6.91
2022-12-15T02:12:32.518Z,-6.60
2022-12-15T02:15:11.488Z,-6.46
2022-12-15T02:18:03.972Z,-6.42
2022-12-15T02:20:38.150Z,-6.29
2022-12-15T02:23:17.460Z,-6.20
2022-12-15T02:26:17.979Z,-6.12
2022-12-15T02:28:57.102Z,-6.05
2022-12-15T02:31:51.182Z,-5.97
2022-12-15T02:34:55.261Z,-5.92
2022-12-15T02:37:25.503Z,-5.85
2022-12-15T02:39:52.566Z,-5.81
2022-12-15T02:42:19.931Z,-5.77
2022-12-15T02:44:53.140Z,-5.74
2022-12-15T02:47:31.731Z,-5.69
2022-12-15T02:50:01.451Z,-5.69
2022-12-15T02:52:41.779Z,-5.72
2022-12-15T02:55:11.457Z,-5.75
2022-12-15T02:57:59.524Z,-5.74
2022-12-15T03:00:28.613Z,-5.71
2022-12-15T03:02:56.485Z,-5.70
2022-12-15T03:05:25.038Z,-5.66
2022-12-15T03:07:54.381Z,-5.66
2022-12-15T03:10:24.895Z,-5.60
2022-12-15T03:12:52.550Z,-5.60
2022-12-15T03:15:19.974Z,-5.51
2022-12-15T03:17:46.922Z,-5.42
2022-12-15T03:20:13.935Z,-5.35
2022-12-15T03:22:40.981Z,-5.29
2022-12-15T03:25:08.547Z,-5.26
2022-12-15T03:27:35.812Z,-5.25
2022-12-15T03:30:03.006Z,-5.29
2022-12-15T03:32:30.413Z,-5.26
2022-12-15T03:34:57.615Z,-5.23
2022-12-15T03:37:24.623Z,-5.23
2022-12-15T03:39:51.739Z,-5.24
2022-12-15T03:42:38.733Z,-5.21
2022-12-15T03:45:06.302Z,-5.21
2022-12-15T03:47:33.459Z,-5.15
2022-12-15T03:50:00.548Z,-5.10
2022-12-15T03:52:27.553Z,-5.06
2022-12-15T03:54:54.610Z,-5.01
2022-12-15T03:57:21.661Z,-4.98
2022-12-15T03:59:48.754Z,-4.96
2022-12-15T04:02:16.041Z,-4.90
2022-12-15T04:04:43.146Z,-4.88
2022-12-15T04:07:10.191Z,-4.86
2022-12-15T04:09:37.610Z,-4.84
2022-12-15T04:12:04.929Z,-4.86
2022-12-15T04:14:32.080Z,-4.87
2022-12-15T04:16:59.438Z,-4.87
2022-12-15T04:19:44.880Z,-4.87
2022-12-15T04:22:17.637Z,-4.75
2022-12-15T04:25:03.683Z,-4.76
2022-12-15T04:27:49.491Z,-4.71
2022-12-15T04:30:35.060Z,-4.78
2022-12-15T04:33:25.166Z,-4.71
2022-12-15T04:36:15.003Z,-4.70
2022-12-15T04:39:00.887Z,-4.70
2022-12-15T04:41:46.418Z,-4.65
2022-12-15T04:44:32.303Z,-4.66
2022-12-15T04:47:18.063Z,-4.59
2022-12-15T04:50:03.602Z,-4.63
2022-12-15T04:52:49.419Z,-4.60
2022-12-15T04:55:34.948Z,-4.62
2022-12-15T04:58:26.081Z,-4.65
2022-12-15T05:01:12.842Z,-4.69
2022-12-15T05:03:58.416Z,-4.66
2022-12-15T05:06:44.254Z,-4.65
2022-12-15T05:09:29.731Z,-4.64
2022-12-15T05:12:15.566Z,-4.82
2022-12-15T05:15:01.350Z,-4.66
2022-12-15T05:17:48.242Z,-4.71
2022-12-15T05:20:33.969Z,-4.64
2022-12-15T05:23:19.329Z,-4.62
2022-12-15T05:26:04.978Z,-4.77
2022-12-15T05:28:50.861Z,-4.69
2022-12-15T05:31:36.413Z,-4.72
2022-12-15T05:34:05.715Z,-4.74
2022-12-15T05:36:33.604Z,-4.81
2022-12-15T05:39:00.602Z,-4.65
2022-12-15T05:41:27.614Z,-4.66
2022-12-15T05:43:54.713Z,-4.65
2022-12-15T05:46:21.946Z,-4.67
2022-12-15T05:48:49.113Z,-4.67
2022-12-15T05:51:16.271Z,-4.69
2022-12-15T05:53:43.395Z,-4.63
2022-12-15T05:56:13.132Z,-4.60
2022-12-15T05:58:45.481Z,-4.64
2022-12-15T06:01:15.976Z,-4.64
2022-12-15T06:03:43.130Z,-4.64
2022-12-15T06:06:12.596Z,-4.63
2022-12-15T06:08:41.610Z,-4.63
2022-12-15T06:11:11.661Z,-4.58
2022-12-15T06:13:38.834Z,-4.62
2022-12-15T06:16:10.201Z,-4.64
2022-12-15T06:18:40.051Z,-4.68
2022-12-15T06:21:10.016Z,-4.72
2022-12-15T06:23:37.028Z,-4.72
2022-12-15T06:26:17.560Z,-4.77
2022-12-15T06:28:45.313Z,-4.76
2022-12-15T06:31:13.043Z,-4.77
2022-12-15T06:33:40.817Z,-4.77
2022-12-15T06:36:13.779Z,-4.82
2022-12-15T06:38:44.313Z,-4.79
2022-12-15T06:41:13.417Z,-4.79
2022-12-15T06:43:41.322Z,-4.85
2022-12-15T06:46:09.238Z,-4.83
2022-12-15T06:48:36.610Z,-4.91
2022-12-15T06:51:06.149Z,-4.98
2022-12-15T06:53:38.043Z,-5.04
2022-12-15T06:56:15.917Z,-5.05
2022-12-15T06:58:42.897Z,-5.07
2022-12-15T07:01:11.380Z,-5.12
2022-12-15T07:03:39.678Z,-5.13
2022-12-15T07:06:10.291Z,-5.17
2022-12-15T07:08:41.289Z,-5.28
2022-12-15T07:11:12.248Z,-5.31
2022-12-15T07:13:40.155Z,-5.31
2022-12-15T07:16:08.454Z,-5.42
2022-12-15T07:18:35.533Z,-5.40
2022-12-15T07:21:04.762Z,-5.47
2022-12-15T07:23:52.863Z,-5.42
2022-12-15T07:26:19.478Z,-5.51
2022-12-15T07:28:46.605Z,-5.43
2022-12-15T07:31:13.737Z,-5.50
2022-12-15T07:33:40.798Z,-5.59
2022-12-15T07:36:08.790Z,-5.56
2022-12-15T07:38:36.734Z,-5.58
2022-12-15T07:41:05.894Z,-5.53
2022-12-15T07:43:33.610Z,-5.54
2022-12-15T07:46:01.605Z,-5.53
2022-12-15T07:48:29.424Z,-5.43
2022-12-15T07:51:07.294Z,-5.39
2022-12-15T07:53:36.717Z,-5.41
2022-12-15T07:56:08.970Z,-5.43
2022-12-15T07:58:37.492Z,-5.45
2022-12-15T08:01:07.080Z,-5.47
2022-12-15T08:03:36.053Z,-5.47
2022-12-15T08:06:05.763Z,-5.50
2022-12-15T08:08:34.320Z,-5.56
2022-12-15T08:11:10.538Z,-5.52
2022-12-15T08:14:02.193Z,-5.51
2022-12-15T08:16:26.469Z,-5.49
2022-12-15T08:18:54.075Z,-5.47
2022-12-15T08:21:21.095Z,-5.44
2022-12-15T08:23:48.541Z,-5.40
2022-12-15T08:26:17.974Z,-5.32
2022-12-15T08:28:46.204Z,-5.30
2022-12-15T08:31:17.097Z,-5.30
2022-12-15T08:33:45.173Z,-5.20
2022-12-15T08:36:14.933Z,-5.10
2022-12-15T08:38:43.653Z,-5.01
2022-12-15T08:41:19.804Z,-4.95
2022-12-15T08:43:49.337Z,-4.86
2022-12-15T08:46:18.598Z,-4.81
2022-12-15T08:48:45.935Z,-4.81
2022-12-15T08:51:13.463Z,-4.80
2022-12-15T08:53:40.501Z,-4.75
2022-12-15T08:56:10.566Z,-4.77
2022-12-15T08:58:38.021Z,-4.74
2022-12-15T09:01:13.781Z,-4.79
2022-12-15T09:03:43.302Z,-4.83
2022-12-15T09:06:19.761Z,-4.90
2022-12-15T09:08:50.185Z,-4.87
2022-12-15T09:11:17.546Z,-4.85
2022-12-15T09:13:44.818Z,-4.90
2022-12-15T09:16:16.259Z,-4.82
2022-12-15T09:18:46.016Z,-4.83
2022-12-15T09:21:13.776Z,-4.82
2022-12-15T09:23:41.099Z,-4.78
2022-12-15T09:26:13.105Z,-4.72
2022-12-15T09:28:40.844Z,-4.74
2022-12-15T09:31:15.085Z,-4.75
2022-12-15T09:33:44.040Z,-4.76
2022-12-15T09:36:13.920Z,-4.75
2022-12-15T09:38:42.457Z,-4.75
2022-12-15T09:41:15.601Z,-4.69
2022-12-15T09:44:04.201Z,-4.66
2022-12-15T09:46:36.271Z,-4.61
2022-12-15T09:49:12.194Z,-4.58
2022-12-15T09:52:07.212Z,-4.56
2022-12-15T09:54:38.516Z,-4.50
2022-12-15T09:57:14.577Z,-4.44
2022-12-15T10:00:07.841Z,-4.39
2022-12-15T10:02:40.825Z,-4.33
2022-12-15T10:05:38.211Z,-4.32
2022-12-15T10:08:14.947Z,-4.31
2022-12-15T10:10:59.703Z,-4.22
2022-12-15T10:13:40.083Z,-4.21
2022-12-15T10:16:37.623Z,-4.21
2022-12-15T10:19:09.154Z,-4.17
2022-12-15T10:21:36.702Z,-4.15
2022-12-15T10:24:37.299Z,-4.12
2022-12-15T10:27:13.899Z,-4.11
2022-12-15T10:29:45.613Z,-4.10
2022-12-15T10:32:19.814Z,-4.08
2022-12-15T10:34:47.264Z,-4.05
2022-12-15T10:37:19.654Z,-4.07
2022-12-15T10:39:50.238Z,-4.05
2022-12-15T10:42:23.641Z,-4.10
2022-12-15T10:44:54.329Z,-4.01
2022-12-15T10:47:31.487Z,-3.97
2022-12-15T10:50:24.192Z,-3.98
2022-12-15T10:52:52.116Z,-4.03
2022-12-15T10:55:40.787Z,-4.02
2022-12-15T10:58:23.691Z,-4.02
2022-12-15T11:01:08.436Z,-3.94
2022-12-15T11:03:39.965Z,-3.92
2022-12-15T11:06:16.439Z,-3.90
2022-12-15T11:08:45.239Z,-3.86
2022-12-15T11:11:54.575Z,-3.85
2022-12-15T11:14:26.127Z,-3.77
2022-12-15T11:16:59.864Z,-3.78
2022-12-15T11:19:49.366Z,-3.73
2022-12-15T11:22:27.662Z,-3.67
2022-12-15T11:25:05.387Z,-3.66
2022-12-15T11:27:44.290Z,-3.63
2022-12-15T11:30:43.464Z,-3.68
2022-12-15T11:33:10.927Z,-3.67
2022-12-15T11:35:46.837Z,-3.65
2022-12-15T11:38:25.244Z,-3.69
2022-12-15T11:40:54.783Z,-3.68
2022-12-15T11:43:37.095Z,-3.66
2022-12-15T11:46:13.486Z,-3.66
2022-12-15T11:49:23.088Z,-3.64
2022-12-15T11:52:06.601Z,-3.65
2022-12-15T11:54:48.656Z,-3.61
2022-12-15T11:57:44.029Z,-3.58
2022-12-15T12:00:17.419Z,-3.54
2022-12-15T12:02:49.843Z,-3.53
2022-12-15T12:05:22.871Z,-3.51
2022-12-15T12:08:12.912Z,-3.50
2022-12-15T12:10:51.695Z,-3.49
2022-12-15T12:13:31.100Z,-3.49
2022-12-15T12:16:27.167Z,-3.46
2022-12-15T12:19:31.211Z,-3.42
2022-12-15T12:22:07.705Z,-3.40
2022-12-15T12:24:53.348Z,-3.34
2022-12-15T12:27:23.521Z,-3.35
2022-12-15T12:29:58.433Z,-3.32
2022-12-15T12:32:50.444Z,-3.31
2022-12-15T12:35:45.802Z,-3.31
2022-12-15T12:38:14.201Z,-3.29
2022-12-15T12:40:41.190Z,-3.29
2022-12-15T12:43:22.880Z,-3.32
2022-12-15T12:45:57.548Z,-3.31
2022-12-15T12:48:33.690Z,-3.31
2022-12-15T12:51:17.504Z,-3.30
2022-12-15T12:53:44.661Z,-3.31
2022-12-15T12:56:32.601Z,-3.44
2022-12-15T12:59:00.180Z,-3.38
2022-12-15T13:01:35.595Z,-3.45
2022-12-15T13:04:07.721Z,-3.41
2022-12-15T13:06:35.018Z,-3.43
2022-12-15T13:09:17.083Z,-3.47
2022-12-15T13:11:53.144Z,-3.47
2022-12-15T13:14:40.553Z,-3.48
2022-12-15T13:17:26.699Z,-3.49
2022-12-15T13:19:57.260Z,-3.49
2022-12-15T13:22:35.767Z,-3.50
2022-12-15T13:25:24.198Z,-3.54
2022-12-15T13:27:53.507Z,-3.51
2022-12-15T13:30:20.729Z,-3.46
2022-12-15T13:32:53.392Z,-3.47
2022-12-15T13:35:30.404Z,-3.48
2022-12-15T13:38:08.541Z,-3.47
2022-12-15T13:40:35.714Z,-3.47
2022-12-15T13:43:05.883Z,-3.45
2022-12-15T13:46:10.629Z,-3.44
2022-12-15T13:48:49.270Z,-3.43
2022-12-15T13:51:28.613Z,-3.45
2022-12-15T13:54:00.354Z,-3.43
2022-12-15T13:59:45.871Z,-3.42
2022-12-15T14:02:29.824Z,-3.44
2022-12-15T14:05:17.612Z,-3.44
2022-12-15T14:07:58.229Z,-3.47
2022-12-15T14:10:26.289Z,-3.49
2022-12-15T14:12:56.614Z,-3.48
2022-12-15T14:15:32.588Z,-3.45
2022-12-15T14:18:01.935Z,-3.43
2022-12-15T14:20:39.406Z,-3.45
2022-12-15T14:23:24.358Z,-3.51
2022-12-15T14:25:55.035Z,-3.44
2022-12-15T14:28:30.697Z,-3.43
2022-12-15T14:31:01.591Z,-3.42
2022-12-15T14:33:29.947Z,-3.44
2022-12-15T14:35:58.583Z,-3.43
2022-12-15T14:38:37.639Z,-3.41
2022-12-15T14:41:05.847Z,-3.41
2022-12-15T14:43:37.707Z,-3.37
2022-12-15T14:46:18.899Z,-3.38
2022-12-15T14:48:57.666Z,-3.40
2022-12-15T14:51:28.644Z,-3.40
2022-12-15T14:53:56.245Z,-3.39
2022-12-15T14:56:30.770Z,-3.44
2022-12-15T14:59:17.324Z,-3.48
2022-12-15T15:01:58.682Z,-3.54
2022-12-15T15:03:11.588Z,-3.45
2022-12-15T15:04:31.462Z,-3.71
2022-12-15T15:07:03.859Z,-3.59
2022-12-15T15:09:38.673Z,-3.58
2022-12-15T15:12:09.441Z,-3.61
2022-12-15T15:14:43.905Z,-3.62
2022-12-15T15:17:13.864Z,-3.63
2022-12-15T15:19:46.781Z,-3.69
2022-12-15T15:22:28.474Z,-3.70
2022-12-15T15:24:55.539Z,-3.77
2022-12-15T15:27:32.061Z,-3.76
2022-12-15T15:30:20.870Z,-3.74
2022-12-15T15:32:59.049Z,-3.74
2022-12-15T15:35:31.412Z,-3.78
2022-12-15T15:38:04.747Z,-3.73
2022-12-15T15:40:31.817Z,-3.76
2022-12-15T15:42:59.664Z,-3.73
2022-12-15T15:45:26.923Z,-3.70
2022-12-15T15:47:56.500Z,-3.70
2022-12-15T15:50:29.872Z,-3.65
2022-12-15T15:52:57.552Z,-3.65
2022-12-15T15:55:34.860Z,-3.66
2022-12-15T15:58:11.005Z,-3.63
2022-12-15T16:00:38.625Z,-3.61
2022-12-15T16:03:06.171Z,-3.62
2022-12-15T16:05:33.446Z,-3.66
2022-12-15T16:08:01.576Z,-3.67
2022-12-15T16:10:28.898Z,-3.71
2022-12-15T16:12:58.761Z,-3.66
2022-12-15T16:15:29.055Z,-3.71
2022-12-15T16:17:56.428Z,-3.70
2022-12-15T16:20:27.491Z,-3.84
2022-12-15T16:22:59.634Z,-3.70
2022-12-15T16:25:41.271Z,-3.74
2022-12-15T16:28:20.632Z,-3.84
2022-12-15T16:30:48.179Z,-3.79
2022-12-15T16:33:15.723Z,-3.79
2022-12-15T16:35:43.878Z,-3.77
2022-12-15T16:38:29.671Z,-3.76
2022-12-15T16:41:04.418Z,-3.81
2022-12-15T16:43:37.233Z,-3.80
2022-12-15T16:46:06.888Z,-3.76
2022-12-15T16:48:34.575Z,-3.74
2022-12-15T16:51:02.763Z,-3.72
2022-12-15T16:53:32.491Z,-3.78
2022-12-15T16:56:03.248Z,-3.72
2022-12-15T16:58:31.814Z,-3.72
2022-12-15T17:00:59.162Z,-3.84
2022-12-15T17:03:29.045Z,-3.68
2022-12-15T17:06:02.429Z,-3.62
2022-12-15T17:08:45.202Z,-3.62
2022-12-15T17:11:27.032Z,-3.65
2022-12-15T17:13:57.404Z,-3.64
2022-12-15T17:16:26.200Z,-3.65
2022-12-15T17:18:53.403Z,-3.67
2022-12-15T17:21:28.803Z,-3.67
2022-12-15T17:24:00.420Z,-3.66
2022-12-15T17:26:30.836Z,-3.68
2022-12-15T17:29:06.294Z,-3.68
2022-12-15T17:31:36.005Z,-3.66
2022-12-15T17:34:26.833Z,-3.68
2022-12-15T17:36:54.293Z,-3.73
2022-12-15T17:39:22.537Z,-3.76
2022-12-15T17:42:05.843Z,-3.79
2022-12-15T17:44:37.879Z,-3.79
2022-12-15T17:47:08.388Z,-3.83
2022-12-15T17:49:38.407Z,-3.78
2022-12-15T17:52:29.262Z,-3.81
2022-12-15T17:54:57.153Z,-3.89
2022-12-15T17:57:24.949Z,-3.83
2022-12-15T17:59:51.981Z,-3.89
2022-12-15T18:02:19.679Z,-3.85
2022-12-15T18:04:47.004Z,-3.84
2022-12-15T18:07:19.993Z,-3.76
2022-12-15T18:09:47.950Z,-3.73
2022-12-15T18:12:23.504Z,-3.70
2022-12-15T18:14:51.428Z,-3.66
2022-12-15T18:17:19.005Z,-3.61
2022-12-15T18:19:46.719Z,-3.60
2022-12-15T18:22:24.612Z,-3.62
2022-12-15T18:24:53.716Z,-3.68
2022-12-15T18:27:21.090Z,-3.66
2022-12-15T18:29:48.123Z,-3.69
2022-12-15T18:32:17.151Z,-3.75
2022-12-15T18:34:44.444Z,-3.83
2022-12-15T18:37:23.151Z,-3.82
2022-12-15T18:39:50.922Z,-3.81
2022-12-15T18:42:21.975Z,-3.81
2022-12-15T18:44:53.650Z,-3.86
2022-12-15T18:47:23.164Z,-3.85
2022-12-15T18:49:50.611Z,-3.84
2022-12-15T18:52:28.726Z,-3.85
2022-12-15T18:55:01.354Z,-3.85
2022-12-15T18:57:33.955Z,-3.85
2022-12-15T19:00:16.709Z,-3.86
2022-12-15T19:02:43.848Z,-3.80
2022-12-15T19:05:29.239Z,-3.80
2022-12-15T19:08:11.740Z,-3.82
2022-12-15T19:10:49.721Z,-3.82
2022-12-15T19:13:19.467Z,-3.83
2022-12-15T19:15:47.572Z,-3.84
2022-12-15T19:18:35.370Z,-3.86
2022-12-15T19:21:41.411Z,-3.90
2022-12-15T19:24:12.431Z,-3.96
2022-12-15T19:26:40.616Z,-3.98
2022-12-15T19:29:25.708Z,-4.04
2022-12-15T19:31:53.685Z,-4.13
2022-12-15T19:34:21.017Z,-4.20
2022-12-15T19:36:48.149Z,-4.31
2022-12-15T19:39:22.928Z,-4.37
2022-12-15T19:41:50.345Z,-4.63
2022-12-15T19:44:17.556Z,-4.52
2022-12-15T19:46:44.945Z,-4.53
2022-12-15T19:49:12.094Z,-4.60
2022-12-15T19:51:39.552Z,-4.67
2022-12-15T19:54:06.791Z,-4.72
2022-12-15T19:56:33.822Z,-4.80
2022-12-15T19:59:00.842Z,-4.86
2022-12-15T20:01:28.027Z,-4.87
2022-12-15T20:03:55.248Z,-5.07
2022-12-15T20:06:27.361Z,-5.00
2022-12-15T20:08:56.397Z,-5.07
2022-12-15T20:11:28.942Z,-5.07
2022-12-15T20:13:56.760Z,-5.06
2022-12-15T20:16:25.034Z,-5.09
2022-12-15T20:18:54.821Z,-5.09
2022-12-15T20:21:24.151Z,-5.09
2022-12-15T20:24:02.496Z,-5.11
2022-12-15T20:26:30.741Z,-5.11
2022-12-15T20:28:58.228Z,-5.14
2022-12-15T20:31:26.227Z,-5.18
2022-12-15T20:33:53.905Z,-5.35
2022-12-15T20:36:27.775Z,-5.24
2022-12-15T20:38:55.027Z,-5.32
2022-12-15T20:41:27.124Z,-5.30
2022-12-15T20:43:55.758Z,-5.38
2022-12-15T20:46:26.340Z,-5.42
2022-12-15T20:48:55.479Z,-5.43
2022-12-15T20:51:24.409Z,-5.48
2022-12-15T20:53:52.592Z,-5.51
2022-12-15T20:56:23.959Z,-5.60
2022-12-15T20:58:52.301Z,-5.58
2022-12-15T21:01:35.546Z,-5.64
2022-12-15T21:04:22.665Z,-5.65
2022-12-15T21:06:54.440Z,-5.69
2022-12-15T21:09:22.822Z,-5.70
2022-12-15T21:11:52.088Z,-5.78
2022-12-15T21:14:22.634Z,-5.99
2022-12-15T21:16:50.087Z,-5.92
2022-12-15T21:20:06.337Z,-5.86
2022-12-15T21:22:05.239Z,-5.87
2022-12-15T21:24:32.633Z,-5.93
2022-12-15T21:27:01.713Z,-5.84
2022-12-15T21:29:29.152Z,-5.87
2022-12-15T21:31:56.239Z,-5.91
2022-12-15T21:34:23.345Z,-5.93
2022-12-15T21:36:55.321Z,-6.04
2022-12-15T21:39:31.227Z,-5.95
2022-12-15T21:42:00.765Z,-5.90
2022-12-15T21:44:28.140Z,-5.89
2022-12-15T21:46:55.235Z,-5.93
2022-12-15T21:49:22.323Z,-5.97
2022-12-15T21:51:57.453Z,-5.94
2022-12-15T21:54:32.977Z,-6.04
2022-12-15T21:57:01.105Z,-6.08
2022-12-15T21:59:33.191Z,-6.20
2022-12-15T22:02:01.488Z,-6.19
2022-12-15T22:04:35.624Z,-6.28
2022-12-15T22:07:03.033Z,-6.23
2022-12-15T22:09:30.117Z,-6.27
2022-12-15T22:11:57.737Z,-6.32
2022-12-15T22:14:29.531Z,-6.32
2022-12-15T22:16:58.207Z,-6.31
2022-12-15T22:19:25.421Z,-6.36
2022-12-15T22:21:52.607Z,-6.39
2022-12-15T22:24:20.257Z,-6.43
2022-12-15T22:26:47.437Z,-6.44
2022-12-15T22:29:23.820Z,-6.39
2022-12-15T22:31:52.005Z,-6.37
2022-12-15T22:34:23.667Z,-6.40
2022-12-15T22:36:52.002Z,-6.36
2022-12-15T22:39:19.460Z,-6.34
2022-12-15T22:41:50.127Z,-6.31
2022-12-15T22:44:22.184Z,-6.37
2022-12-15T22:46:51.528Z,-6.40
2022-12-15T22:49:22.672Z,-6.52
2022-12-15T22:51:49.664Z,-6.57
2022-12-15T22:54:22.833Z,-6.57
2022-12-15T22:56:54.223Z,-6.57
2022-12-15T22:59:33.829Z,-6.58
2022-12-15T23:02:02.878Z,-6.53
2022-12-15T23:04:32.090Z,-6.62
2022-12-15T23:07:03.508Z,-6.63
2022-12-15T23:09:33.997Z,-6.73
2022-12-15T23:12:01.572Z,-6.71
2022-12-15T23:14:51.892Z,-6.73
2022-12-15T23:17:18.939Z,-6.59
2022-12-15T23:19:46.655Z,-6.59
2022-12-15T23:22:14.193Z,-6.63
2022-12-15T23:24:41.304Z,-6.69
2022-12-15T23:27:12.088Z,-6.74
2022-12-15T23:29:39.061Z,-6.75
2022-12-15T23:32:06.269Z,-6.72
2022-12-15T23:34:33.254Z,-6.71
2022-12-15T23:37:01.056Z,-6.73
2022-12-15T23:39:28.520Z,-6.70
2022-12-15T23:41:55.703Z,-6.90
2022-12-15T23:44:23.141Z,-6.81
2022-12-15T23:46:50.226Z,-6.77
2022-12-15T23:49:17.461Z,-6.79
2022-12-15T23:51:44.459Z,-6.82
2022-12-15T23:54:11.534Z,-6.98
2022-12-15T23:56:39.747Z,-7.03
2022-12-15T23:59:07.264Z,-7.00
